Time;durP1;ratioP1;P1;durP2;ratioP2;P2;SDS_P1;SDS_P2;PMS_P1;PMS_P2;Temp;Humidity;BMP_temperature;BMP_pressure;BME280_temperature;BME280_humidity;BME280_pressure;Samples;Min_cycle;Max_cycle;Signal;HPM_P1;HPM_P2
2023/06/11 00:01:51;;;;;;;0.70;0.70;;;;;;;21.20;100.00;99465.88;5070848;28;20229;-72
2023/06/11 00:04:25;;;;;;;0.60;0.60;;;;;;;21.37;100.00;99477.59;5052659;28;20246;-72
2023/06/11 00:06:53;;;;;;;0.70;0.70;;;;;;;21.48;100.00;99481.50;5071117;28;20195;-72
2023/06/11 00:09:20;;;;;;;0.60;0.60;;;;;;;21.00;100.00;99389.31;5074738;28;20662;-73
2023/06/11 00:11:46;;;;;;;0.93;0.93;;;;;;;21.57;100.00;99478.53;5074673;28;20203;-73
2023/06/11 00:14:15;;;;;;;0.70;0.70;;;;;;;21.62;100.00;99483.59;5074831;28;20198;-73
2023/06/11 00:16:43;;;;;;;0.60;0.60;;;;;;;21.50;100.00;99484.97;5074654;28;20203;-73
2023/06/11 00:19:10;;;;;;;0.70;0.70;;;;;;;21.20;100.00;99465.88;5074775;28;20281;-72
2023/06/11 00:21:43;;;;;;;0.75;0.75;;;;;;;21.26;100.00;99484.09;5074322;28;20233;-72
2023/06/11 00:24:11;;;;;;;0.60;0.60;;;;;;;21.42;100.00;99475.59;5074522;28;20199;-72
2023/06/11 00:26:38;;;;;;;0.80;0.80;;;;;;;21.61;100.00;99479.25;5074599;28;20207;-72
2023/06/11 00:29:05;;;;;;;0.70;0.70;;;;;;;21.52;100.00;99477.81;5074303;28;20281;-72
2023/06/11 00:31:33;;;;;;;0.70;0.70;;;;;;;21.50;100.00;99473.53;5074696;28;20647;-72
2023/06/11 00:34:00;;;;;;;0.70;0.70;;;;;;;21.34;100.00;99469.75;5074287;28;20617;-72
2023/06/11 00:36:27;;;;;;;0.70;0.70;;;;;;;21.46;100.00;99482.50;5039290;28;20624;-72
2023/06/11 00:38:54;;;;;;;0.90;0.90;;;;;;;21.43;100.00;99479.97;5039000;28;20203;-72
2023/06/11 00:41:24;;;;;;;0.60;0.60;;;;;;;21.51;100.00;99477.91;5074308;28;20203;-72
2023/06/11 00:43:52;;;;;;;0.75;0.75;;;;;;;21.57;100.00;99480.28;5074286;28;20202;-72
2023/06/11 00:46:21;;;;;;;0.70;0.70;;;;;;;21.62;100.00;99473.03;5074143;28;20199;-72
2023/06/11 00:48:50;;;;;;;0.60;0.60;;;;;;;21.70;100.00;99460.41;5074145;28;20202;-72
2023/06/11 00:51:18;;;;;;;1.33;1.23;;;;;;;21.81;100.00;99474.03;5074098;28;20277;-73
2023/06/11 00:53:45;;;;;;;0.80;0.80;;;;;;;21.63;100.00;99464.22;5074263;28;20214;-73
2023/06/11 00:56:17;;;;;;;0.82;0.82;;;;;;;21.47;100.00;99460.47;5074225;28;20198;-72
2023/06/11 00:58:45;;;;;;;0.70;0.70;;;;;;;21.61;100.00;99485.41;5073923;28;20260;-72
2023/06/11 01:01:15;;;;;;;0.70;0.70;;;;;;;21.72;100.00;99475.25;5073748;28;20202;-72
2023/06/11 01:03:43;;;;;;;0.80;0.80;;;;;;;21.50;100.00;99479.69;5073904;28;20226;-73
2023/06/11 01:06:17;;;;;;;0.70;0.70;;;;;;;21.39;100.00;99452.00;5073825;28;20210;-73
2023/06/11 01:08:52;;;;;;;0.70;0.70;;;;;;;21.33;100.00;99457.50;5073607;28;20206;-72
2023/06/11 01:11:21;;;;;;;0.70;0.70;;;;;;;21.51;100.00;99480.53;5073725;28;20612;-72
2023/06/11 01:13:48;;;;;;;0.68;0.68;;;;;;;21.51;100.00;99480.53;5073499;28;20195;-72
2023/06/11 01:16:26;;;;;;;0.70;0.70;;;;;;;21.62;100.00;99478.31;5073556;28;20271;-72
2023/06/11 01:19:03;;;;;;;0.70;0.70;;;;;;;21.61;100.00;99460.78;5073368;28;20217;-72
2023/06/11 01:21:40;;;;;;;0.70;0.70;;;;;;;21.69;100.00;99475.38;5040004;28;20198;-72
2023/06/11 01:24:16;;;;;;;0.70;0.70;;;;;;;21.84;100.00;99481.81;5073362;28;20234;-72
2023/06/11 01:26:50;;;;;;;0.70;0.70;;;;;;;21.84;100.00;99486.25;5073685;28;20661;-73
2023/06/11 01:29:22;;;;;;;0.70;0.70;;;;;;;22.04;100.00;99481.94;5073222;28;20202;-72
2023/06/11 01:31:51;;;;;;;0.63;0.63;;;;;;;22.09;100.00;99487.84;5073274;28;20203;-72
2023/06/11 01:34:18;;;;;;;0.80;0.80;;;;;;;21.88;100.00;99491.34;5021786;28;20197;-72
2023/06/11 01:36:45;;;;;;;0.70;0.70;;;;;;;21.80;100.00;99482.88;5072975;28;20210;-72
2023/06/11 01:39:12;;;;;;;0.80;0.80;;;;;;;21.63;100.00;99485.31;5073293;28;20202;-72
2023/06/11 01:41:38;;;;;;;1.17;1.17;;;;;;;21.71;100.00;99486.75;5073194;28;20235;-72
2023/06/11 01:44:05;;;;;;;0.70;0.70;;;;;;;21.75;100.00;99480.44;5073099;28;20199;-72
2023/06/11 01:46:33;;;;;;;0.82;0.82;;;;;;;21.81;100.00;99487.22;5073002;28;20704;-72
2023/06/11 01:49:00;;;;;;;0.70;0.70;;;;;;;21.65;100.00;99484.31;5072960;28;20195;-72
2023/06/11 01:51:27;;;;;;;0.63;0.63;;;;;;;21.63;100.00;99485.31;5073107;28;20272;-73
2023/06/11 01:53:54;;;;;;;0.80;0.80;;;;;;;21.57;100.00;99488.22;5073007;28;20199;-73
2023/06/11 01:56:21;;;;;;;0.70;0.70;;;;;;;21.55;100.00;99482.13;5072803;28;20241;-73
2023/06/11 01:58:48;;;;;;;0.70;0.70;;;;;;;21.50;100.00;99492.00;5072632;28;20670;-72
2023/06/11 02:01:15;;;;;;;0.90;0.90;;;;;;;21.30;100.00;99482.19;5072576;28;20207;-71
2023/06/11 02:03:43;;;;;;;0.70;0.70;;;;;;;21.48;100.00;99485.91;5072397;28;20709;-71
2023/06/11 02:06:10;;;;;;;0.60;0.60;;;;;;;21.36;100.00;99492.53;5072647;28;20252;-73
2023/06/11 02:08:37;;;;;;;0.88;0.88;;;;;;;21.43;100.00;99494.03;5072514;28;20194;-72
2023/06/11 02:11:04;;;;;;;0.60;0.60;;;;;;;21.48;100.00;99499.09;5072656;28;20203;-74
2023/06/11 02:13:31;;;;;;;0.70;0.70;;;;;;;21.32;100.00;99474.25;5072513;28;20298;-73
2023/06/11 02:15:58;;;;;;;0.85;0.85;;;;;;;21.50;100.00;99502.56;5072491;28;20302;-73
2023/06/11 02:18:25;;;;;;;0.70;0.70;;;;;;;21.39;100.00;99508.25;5072294;28;20202;-72
2023/06/11 02:20:53;;;;;;;0.70;0.70;;;;;;;21.13;100.00;99480.22;5072592;28;20191;-72
2023/06/11 02:23:20;;;;;;;0.70;0.70;;;;;;;21.00;100.00;99491.25;5037067;28;20283;-73
2023/06/11 02:25:47;;;;;;;0.70;0.70;;;;;;;20.94;100.00;99494.94;5037084;28;20264;-72
2023/06/11 02:28:14;;;;;;;0.70;0.70;;;;;;;20.48;100.00;99415.84;5072199;28;20248;-73
2023/06/11 02:30:40;;;;;;;0.77;0.77;;;;;;;20.92;100.00;99494.16;5071352;28;20269;-73
2023/06/11 02:33:07;;;;;;;0.80;0.80;;;;;;;20.92;100.00;99480.97;5072200;28;20207;-73
2023/06/11 02:35:34;;;;;;;0.70;0.70;;;;;;;21.06;100.00;99499.78;5072111;28;20195;-73
2023/06/11 02:38:02;;;;;;;0.80;0.80;;;;;;;21.07;100.00;99498.88;5072158;28;20199;-73
2023/06/11 02:40:29;;;;;;;0.60;0.60;;;;;;;21.01;100.00;99496.44;5036951;28;20256;-72
2023/06/11 02:42:56;;;;;;;0.70;0.70;;;;;;;21.04;100.00;99488.44;5071853;28;20226;-73
2023/06/11 02:45:22;;;;;;;0.80;0.80;;;;;;;21.27;100.00;99509.56;5071684;28;20221;-71
2023/06/11 02:47:49;;;;;;;0.80;0.80;;;;;;;21.43;100.00;99514.25;5072043;28;20203;-72
2023/06/11 02:50:16;;;;;;;0.70;0.70;;;;;;;21.49;100.00;99519.28;5071726;28;20195;-72
2023/06/11 02:52:43;;;;;;;0.93;0.93;;;;;;;21.49;100.00;99522.81;5071688;28;20199;-72
2023/06/11 02:55:11;;;;;;;0.75;0.75;;;;;;;21.62;100.00;99518.75;5071750;28;20221;-72
2023/06/11 02:57:38;;;;;;;0.70;0.70;;;;;;;21.52;100.00;99521.81;5071778;28;20256;-72
2023/06/11 03:00:06;;;;;;;0.75;0.75;;;;;;;21.37;100.00;99506.59;5071432;28;20236;-72
2023/06/11 03:02:33;;;;;;;0.55;0.55;;;;;;;21.25;100.00;99516.69;5071958;28;20226;-73
2023/06/11 03:05:00;;;;;;;0.63;0.63;;;;;;;21.18;100.00;99517.84;5036479;28;20195;-72
2023/06/11 03:07:27;;;;;;;0.70;0.70;;;;;;;21.19;100.00;99516.88;5071552;28;20205;-72
2023/06/11 03:09:54;;;;;;;0.70;0.70;;;;;;;21.20;100.00;99515.13;5071464;28;20199;-72
2023/06/11 03:12:22;;;;;;;0.70;0.70;;;;;;;21.34;100.00;99502.28;5071474;28;20245;-72
2023/06/11 03:14:48;;;;;;;0.60;0.60;;;;;;;21.66;100.00;99527.41;5071859;28;20198;-73
2023/06/11 03:17:15;;;;;;;0.77;0.77;;;;;;;22.02;100.00;99530.41;5071651;28;20260;-73
2023/06/11 03:19:42;;;;;;;0.70;0.70;;;;;;;22.17;100.00;99535.94;5071363;28;20202;-73
2023/06/11 03:22:09;;;;;;;0.70;0.70;;;;;;;22.34;100.00;99544.94;5071363;28;20198;-72
2023/06/11 03:24:36;;;;;;;0.70;0.70;;;;;;;22.53;100.00;99545.91;5071936;28;20665;-72
2023/06/11 03:27:02;;;;;;;0.70;0.70;;;;;;;22.75;100.00;99546.75;5071327;28;20763;-73
2023/06/11 03:29:30;;;;;;;0.68;0.68;;;;;;;23.16;100.00;99550.19;5071364;28;20238;-72
2023/06/11 03:31:57;;;;;;;0.80;0.80;;;;;;;23.37;100.00;99543.06;5071477;28;20199;-72
2023/06/11 03:34:24;;;;;;;0.70;0.70;;;;;;;23.75;100.00;99555.44;5071670;28;20206;-72
2023/06/11 03:36:51;;;;;;;0.80;0.80;;;;;;;24.00;100.00;99526.88;5071326;28;20592;-72
2023/06/11 03:39:18;;;;;;;0.68;0.68;;;;;;;24.33;100.00;99556.16;5071338;28;20252;-72
2023/06/11 03:41:44;;;;;;;0.70;0.70;;;;;;;24.72;100.00;99557.75;5071373;28;20655;-72
2023/06/11 03:44:12;;;;;;;0.65;0.65;;;;;;;25.20;100.00;99557.00;5075200;28;20291;-72
2023/06/11 03:46:40;;;;;;;0.60;0.60;;;;;;;25.73;93.36;99562.97;5075353;28;20704;-72
2023/06/11 03:49:07;;;;;;;1.05;1.05;;;;;;;25.71;91.09;99559.56;5039870;28;20256;-72
2023/06/11 03:51:33;;;;;;;0.70;0.70;;;;;;;26.40;88.31;99561.81;5075355;28;20237;-73
2023/06/11 03:54:00;;;;;;;1.15;1.15;;;;;;;26.71;85.18;99566.22;5074899;28;20206;-73
2023/06/11 03:56:27;;;;;;;1.30;1.30;;;;;;;26.81;84.15;99562.94;5075258;28;20255;-73
2023/06/11 03:58:54;;;;;;;2.75;0.80;;;;;;;26.86;81.42;99533.44;5075195;28;20264;-73
2023/06/11 04:01:21;;;;;;;0.70;0.70;;;;;;;27.16;81.21;99559.97;5075084;28;20276;-72
2023/06/11 04:03:49;;;;;;;0.90;0.90;;;;;;;27.62;79.26;99557.97;5056492;28;20682;-72
2023/06/11 04:06:18;;;;;;;0.65;0.65;;;;;;;27.45;78.83;99559.06;5075175;28;20198;-73
2023/06/11 04:08:45;;;;;;;6.50;2.47;;;;;;;27.44;80.39;99554.63;5074716;28;20625;-74
2023/06/11 04:11:12;;;;;;;0.52;0.52;;;;;;;28.06;75.11;99564.88;5075188;28;20286;-74
2023/06/11 04:13:38;;;;;;;0.40;0.40;;;;;;;28.47;72.29;99575.50;5074854;28;20206;-72
2023/06/11 04:16:05;;;;;;;0.60;0.60;;;;;;;29.34;68.47;99580.28;5074844;28;20268;-72
2023/06/11 04:18:32;;;;;;;0.60;0.60;;;;;;;29.41;65.77;99587.75;5074764;28;20190;-73
2023/06/11 04:21:00;;;;;;;0.70;0.70;;;;;;;29.93;63.06;99587.59;5039326;28;20256;-72
2023/06/11 04:23:27;;;;;;;0.57;0.57;;;;;;;30.19;61.73;99592.84;5074419;28;20295;-71
2023/06/11 04:25:55;;;;;;;0.60;0.60;;;;;;;29.52;61.60;99592.34;5074639;28;20266;-73
2023/06/11 04:28:23;;;;;;;0.65;0.65;;;;;;;29.70;62.86;99585.69;5074637;28;20248;-72
2023/06/11 04:30:50;;;;;;;0.50;0.50;;;;;;;29.93;61.56;99584.91;5074243;28;20321;-73
2023/06/11 04:33:16;;;;;;;0.60;0.60;;;;;;;29.57;61.04;99566.16;5055923;28;20591;-73
2023/06/11 04:35:43;;;;;;;0.60;0.60;;;;;;;29.77;60.87;99588.78;5074091;28;20310;-73
2023/06/11 04:38:11;;;;;;;0.70;0.70;;;;;;;29.95;60.40;99607.06;5074545;28;20210;-73
2023/06/11 04:40:39;;;;;;;0.85;0.85;;;;;;;29.79;60.13;99563.63;5074196;28;20194;-74
2023/06/11 04:43:06;;;;;;;0.70;0.70;;;;;;;29.88;60.08;99589.75;5074251;28;20230;-73
2023/06/11 04:45:33;;;;;;;0.60;0.60;;;;;;;29.64;60.79;99601.31;5074398;28;20202;-73
2023/06/11 04:48:03;;;;;;;0.50;0.50;;;;;;;30.05;60.28;99595.69;5074172;28;20201;-73
2023/06/11 04:50:31;;;;;;;0.55;0.55;;;;;;;29.88;59.95;99592.44;5074084;28;20203;-73
2023/06/11 04:53:01;;;;;;;0.60;0.60;;;;;;;30.20;60.63;99600.78;5073658;28;20206;-76
2023/06/11 04:55:32;;;;;;;0.70;0.70;;;;;;;30.70;58.08;99599.72;5074211;28;20206;-76
2023/06/11 04:57:59;;;;;;;0.60;0.60;;;;;;;31.09;56.22;99611.06;5074206;28;20225;-76
2023/06/11 05:00:26;;;;;;;0.70;0.70;;;;;;;30.75;56.73;99608.25;5074214;28;20221;-76
2023/06/11 05:02:53;;;;;;;0.63;0.63;;;;;;;30.79;57.08;99604.38;5073742;28;20198;-76
2023/06/11 05:05:20;;;;;;;0.60;0.60;;;;;;;30.69;56.22;99600.69;5074136;28;20244;-79
2023/06/11 05:07:47;;;;;;;0.65;0.65;;;;;;;31.12;55.69;99608.16;5038525;28;20205;-75
2023/06/11 05:10:15;;;;;;;0.70;0.70;;;;;;;31.11;54.92;99615.31;5074099;28;20195;-76
2023/06/11 05:12:43;;;;;;;0.50;0.50;;;;;;;31.04;55.73;99603.38;5055503;28;20240;-76
2023/06/11 05:15:11;;;;;;;0.65;0.65;;;;;;;31.06;55.87;99619.34;5073667;28;20198;-75
2023/06/11 05:17:38;;;;;;;0.70;0.70;;;;;;;31.15;55.76;99623.97;5055496;28;20260;-77
2023/06/11 05:20:05;;;;;;;0.70;0.70;;;;;;;31.91;53.48;99621.53;5073679;28;20198;-78
2023/06/11 05:22:32;;;;;;;0.52;0.52;;;;;;;31.81;53.86;99624.09;5073686;28;20225;-76
2023/06/11 05:24:59;;;;;;;0.68;0.68;;;;;;;31.48;53.86;99624.03;5073571;28;20226;-75
2023/06/11 05:27:29;;;;;;;0.50;0.50;;;;;;;31.32;54.60;99621.69;5073362;28;20198;-74
2023/06/11 05:29:57;;;;;;;0.60;0.60;;;;;;;31.02;56.12;99625.91;5073576;28;20230;-75
2023/06/11 05:32:24;;;;;;;0.55;0.55;;;;;;;30.79;57.55;99628.47;5071274;28;20579;-75
2023/06/11 05:34:50;;;;;;;0.60;0.60;;;;;;;31.06;55.89;99627.38;5073204;28;20229;-75
2023/06/11 05:37:17;;;;;;;0.60;0.60;;;;;;;31.14;57.23;99622.28;5058698;28;20253;-75
2023/06/11 05:39:44;;;;;;;0.63;0.63;;;;;;;31.23;55.54;99608.16;5069892;28;20202;-74
2023/06/11 05:42:11;;;;;;;0.60;0.60;;;;;;;31.33;54.07;99619.88;5059566;28;20206;-75
2023/06/11 05:44:38;;;;;;;0.70;0.70;;;;;;;31.30;53.52;99630.84;5072850;28;20237;-75
2023/06/11 05:47:06;;;;;;;0.90;0.90;;;;;;;31.44;54.30;99633.28;5073226;28;20198;-75
2023/06/11 05:49:33;;;;;;;0.60;0.60;;;;;;;30.98;54.20;99647.56;5073289;28;20209;-76
2023/06/11 05:51:59;;;;;;;0.60;0.60;;;;;;;30.38;54.93;99649.41;5073129;28;20241;-76
2023/06/11 05:54:26;;;;;;;0.70;0.70;;;;;;;30.12;59.36;99645.09;5073143;28;20198;-75
2023/06/11 05:56:53;;;;;;;0.65;0.65;;;;;;;30.03;61.09;99641.28;5072979;28;20216;-75
2023/06/11 05:59:20;;;;;;;0.98;0.98;;;;;;;30.18;59.19;99639.31;5073118;28;20703;-76
2023/06/11 06:01:47;;;;;;;0.63;0.63;;;;;;;30.25;57.96;99640.56;5073114;28;20202;-76
2023/06/11 06:04:15;;;;;;;1.35;1.25;;;;;;;29.19;62.96;99632.91;5072693;28;20226;-75
2023/06/11 06:06:42;;;;;;;0.60;0.60;;;;;;;28.29;69.33;99635.38;5071974;28;20199;-75
2023/06/11 06:09:09;;;;;;;0.77;0.77;;;;;;;28.90;67.02;99642.88;5072708;28;20210;-76
2023/06/11 06:11:36;;;;;;;0.60;0.60;;;;;;;28.87;68.37;99632.44;5072541;28;20194;-75
2023/06/11 06:14:03;;;;;;;0.70;0.70;;;;;;;28.52;70.16;99639.22;5037589;28;20752;-76
2023/06/11 06:16:31;;;;;;;0.68;0.68;;;;;;;28.64;71.01;99640.22;5037600;28;20230;-75
2023/06/11 06:18:58;;;;;;;0.60;0.60;;;;;;;28.50;71.53;99635.81;5053953;28;20195;-76
2023/06/11 06:21:26;;;;;;;1.08;1.08;;;;;;;28.68;72.23;99636.44;5072480;28;20203;-75
2023/06/11 06:23:53;;;;;;;0.60;0.60;;;;;;;28.42;71.69;99640.78;5053690;28;20709;-75
2023/06/11 06:26:22;;;;;;;0.60;0.60;;;;;;;28.01;74.01;99644.25;5072165;28;20257;-75
2023/06/11 06:28:49;;;;;;;0.60;0.60;;;;;;;28.07;73.35;99651.91;5038235;28;20256;-75
2023/06/11 06:31:17;;;;;;;1.70;1.60;;;;;;;27.57;73.82;99651.53;5070184;28;20251;-75
2023/06/11 06:33:44;;;;;;;0.60;0.60;;;;;;;27.65;73.41;99659.88;5070482;28;20788;-75
2023/06/11 06:36:10;;;;;;;0.77;0.77;;;;;;;26.80;79.72;99659.66;5072190;28;20198;-75
2023/06/11 06:38:40;;;;;;;0.98;0.98;;;;;;;27.38;79.66;99661.53;5071986;28;20669;-74
2023/06/11 06:41:07;;;;;;;1.17;1.17;;;;;;;27.39;81.26;99655.28;5069183;28;20209;-75
2023/06/11 06:43:34;;;;;;;0.60;0.60;;;;;;;27.20;80.13;99652.00;5072144;28;20285;-75
2023/06/11 06:46:01;;;;;;;0.70;0.70;;;;;;;27.01;83.31;99647.78;5072115;28;20665;-75
2023/06/11 06:48:27;;;;;;;0.80;0.80;;;;;;;27.17;82.01;99633.56;5072161;28;20202;-77
2023/06/11 06:50:54;;;;;;;0.80;0.80;;;;;;;27.25;80.26;99628.63;5071911;28;20190;-76
2023/06/11 06:53:21;;;;;;;0.70;0.70;;;;;;;26.89;76.96;99643.19;5071657;28;20191;-75
2023/06/11 06:55:50;;;;;;;0.70;0.70;;;;;;;26.92;80.38;99636.81;5071991;28;20199;-74
2023/06/11 06:58:16;;;;;;;0.70;0.70;;;;;;;26.85;83.55;99625.69;5072131;28;20203;-75
2023/06/11 07:00:45;;;;;;;0.60;0.60;;;;;;;27.03;76.24;99626.41;5071836;28;20252;-76
2023/06/11 07:03:13;;;;;;;0.68;0.68;;;;;;;26.58;80.76;99620.13;5072127;28;20199;-76
2023/06/11 07:05:40;;;;;;;0.60;0.60;;;;;;;26.78;81.00;99608.34;5071554;28;20681;-75
2023/06/11 07:08:08;;;;;;;0.70;0.70;;;;;;;26.83;81.40;99634.69;5072129;28;20203;-75
2023/06/11 07:10:35;;;;;;;1.65;1.55;;;;;;;26.71;79.76;99633.59;5071883;28;20202;-75
2023/06/11 07:13:03;;;;;;;0.60;0.60;;;;;;;27.02;77.17;99633.53;5071548;28;20655;-76
2023/06/11 07:15:30;;;;;;;0.60;0.60;;;;;;;26.75;70.00;99619.16;5036814;28;20203;-75
2023/06/11 07:17:57;;;;;;;0.70;0.70;;;;;;;27.14;73.18;99625.75;5071318;28;20260;-76
2023/06/11 07:20:24;;;;;;;0.77;0.77;;;;;;;27.37;69.03;99630.53;5071682;28;20228;-75
2023/06/11 07:22:50;;;;;;;0.73;0.73;;;;;;;27.70;67.12;99639.16;5071973;28;20206;-77
2023/06/11 07:25:17;;;;;;;0.80;0.80;;;;;;;27.98;66.12;99619.59;5071677;28;20231;-76
2023/06/11 07:27:44;;;;;;;0.85;0.85;;;;;;;28.19;66.47;99617.41;5036499;28;20207;-74
2023/06/11 07:30:13;;;;;;;0.50;0.50;;;;;;;28.37;65.62;99642.88;5071617;28;20230;-75
2023/06/11 07:32:40;;;;;;;0.70;0.70;;;;;;;28.19;67.96;99630.72;5071907;28;20203;-75
2023/06/11 07:35:07;;;;;;;0.68;0.68;;;;;;;28.50;67.02;99623.31;5071269;28;20291;-76
2023/06/11 07:37:34;;;;;;;0.60;0.60;;;;;;;28.81;65.12;99623.97;5071349;28;20324;-74
2023/06/11 07:40:00;;;;;;;0.60;0.60;;;;;;;28.58;65.42;99628.13;5072065;28;20198;-76
2023/06/11 07:42:27;;;;;;;0.60;0.60;;;;;;;28.80;63.17;99630.25;5071878;28;20199;-77
2023/06/11 07:44:54;;;;;;;0.70;0.70;;;;;;;28.66;61.65;99631.16;5071710;28;20222;-77
2023/06/11 07:47:22;;;;;;;0.60;0.60;;;;;;;28.36;62.87;99604.69;5071119;28;20199;-75
2023/06/11 07:49:49;;;;;;;0.70;0.70;;;;;;;28.40;63.27;99600.00;5036338;28;20203;-75
2023/06/11 07:52:16;;;;;;;0.70;0.70;;;;;;;28.62;63.89;99626.97;5071276;28;20203;-75
2023/06/11 07:54:43;;;;;;;0.80;0.80;;;;;;;28.70;63.98;99622.03;5071355;28;20198;-74
2023/06/11 07:57:12;;;;;;;0.70;0.70;;;;;;;29.13;64.91;99621.78;5071691;28;20306;-75
2023/06/11 07:59:40;;;;;;;0.70;0.70;;;;;;;29.22;64.07;99621.16;5036990;28;20205;-75
2023/06/11 08:02:08;;;;;;;0.60;0.60;;;;;;;29.63;62.06;99627.19;5071104;28;20230;-75
2023/06/11 08:04:36;;;;;;;0.68;0.68;;;;;;;29.64;59.43;99623.56;5071237;28;20226;-75
2023/06/11 08:07:04;;;;;;;0.60;0.60;;;;;;;29.48;60.45;99626.44;5071149;28;20769;-75
2023/06/11 08:09:31;;;;;;;0.70;0.70;;;;;;;29.83;58.99;99626.63;5070979;28;20661;-75
2023/06/11 08:11:58;;;;;;;0.77;0.77;;;;;;;29.45;58.67;99628.47;5070956;28;20207;-75
2023/06/11 08:14:24;;;;;;;0.70;0.70;;;;;;;29.68;59.97;99617.00;5070989;28;20264;-73
2023/06/11 08:16:54;;;;;;;0.88;0.88;;;;;;;30.28;57.69;99632.31;5071118;28;20564;-76
2023/06/11 08:19:21;;;;;;;0.60;0.60;;;;;;;30.44;55.59;99636.44;5071312;28;20202;-76
2023/06/11 08:21:49;;;;;;;0.70;0.70;;;;;;;29.76;56.39;99633.34;5071106;28;20252;-76
2023/06/11 08:24:16;;;;;;;0.60;0.60;;;;;;;29.59;56.33;99615.00;5071393;28;20235;-77
2023/06/11 08:26:43;;;;;;;0.63;0.63;;;;;;;29.57;56.89;99637.44;5071003;28;20630;-77
2023/06/11 08:29:10;;;;;;;0.70;0.70;;;;;;;29.02;57.63;99641.22;5072826;28;20697;-75
2023/06/11 08:31:37;;;;;;;0.60;0.60;;;;;;;29.14;58.81;99640.41;5072155;28;20210;-75
2023/06/11 08:34:03;;;;;;;0.80;0.80;;;;;;;28.93;59.79;99624.00;5074269;28;20217;-76
2023/06/11 08:36:31;;;;;;;0.68;0.68;;;;;;;29.26;65.84;99644.00;5073944;28;20608;-76
2023/06/11 08:38:59;;;;;;;0.70;0.70;;;;;;;29.07;61.08;99649.78;5060009;28;20205;-77
2023/06/11 08:41:29;;;;;;;0.60;0.60;;;;;;;28.56;61.73;99644.25;5060651;28;20214;-79
2023/06/11 08:43:55;;;;;;;0.65;0.65;;;;;;;28.74;65.92;99636.03;5074362;28;20809;-78
2023/06/11 08:46:24;;;;;;;0.70;0.70;;;;;;;29.03;70.25;99622.44;5074443;28;20674;-79
2023/06/11 08:48:57;;;;;;;0.63;0.63;;;;;;;29.14;58.63;99643.06;5074082;28;20191;-78
2023/06/11 08:51:27;;;;;;;0.63;0.63;;;;;;;28.59;59.78;99637.84;5074154;28;20222;-78
2023/06/11 08:53:54;;;;;;;0.70;0.70;;;;;;;28.35;68.52;99629.66;5060593;28;20667;-78
2023/06/11 08:56:23;;;;;;;0.60;0.60;;;;;;;28.50;63.87;99641.16;5073410;28;20214;-76
2023/06/11 08:58:50;;;;;;;0.70;0.70;;;;;;;28.31;66.62;99637.97;5073842;28;20206;-76
2023/06/11 09:01:17;;;;;;;3.72;0.90;;;;;;;28.42;67.64;99636.31;5038529;28;20235;-76
2023/06/11 09:03:44;;;;;;;0.77;0.77;;;;;;;28.58;68.38;99625.47;5073687;28;20724;-76
2023/06/11 09:06:11;;;;;;;0.70;0.70;;;;;;;28.82;65.34;99633.72;5064254;28;20220;-76
2023/06/11 09:08:38;;;;;;;1.13;1.13;;;;;;;28.43;73.71;99621.16;5033868;28;20203;-77
2023/06/11 09:11:05;;;;;;;0.60;0.60;;;;;;;28.46;66.35;99600.47;5038579;28;20228;-76
2023/06/11 09:13:33;;;;;;;0.70;0.70;;;;;;;28.51;66.83;99614.34;5073762;28;20226;-75
2023/06/11 09:16:00;;;;;;;0.70;0.70;;;;;;;28.73;67.96;99608.47;5059739;28;20641;-75
2023/06/11 09:18:28;;;;;;;2.15;0.88;;;;;;;29.07;62.24;99615.06;5026080;28;20200;-75
2023/06/11 09:20:57;;;;;;;0.65;0.65;;;;;;;29.13;61.33;99619.13;5071774;28;20264;-76
2023/06/11 09:23:26;;;;;;;0.60;0.60;;;;;;;28.95;62.65;99613.22;5073448;28;20242;-76
2023/06/11 09:25:53;;;;;;;0.60;0.60;;;;;;;29.12;62.78;99614.72;5038545;28;20273;-76
2023/06/11 09:28:19;;;;;;;0.60;0.60;;;;;;;28.83;61.70;99603.38;5073615;28;20211;-77
2023/06/11 09:30:55;;;;;;;0.65;0.65;;;;;;;28.88;60.31;99610.13;5073195;28;20231;-76
2023/06/11 09:33:22;;;;;;;0.80;0.80;;;;;;;28.82;57.59;99618.56;5073321;28;20677;-76
2023/06/11 09:35:49;;;;;;;0.70;0.70;;;;;;;28.88;56.74;99607.44;5073125;28;20676;-74
2023/06/11 09:38:16;;;;;;;0.70;0.70;;;;;;;28.88;58.26;99583.44;5073524;28;20294;-75
2023/06/11 09:40:46;;;;;;;0.80;0.80;;;;;;;29.15;57.46;99606.50;5073015;28;20202;-75
2023/06/11 09:43:13;;;;;;;0.70;0.70;;;;;;;28.96;56.13;99606.94;5073187;28;20230;-75
2023/06/11 09:45:42;;;;;;;0.82;0.82;;;;;;;28.90;56.21;99584.16;5072977;28;20266;-76
2023/06/11 09:48:12;;;;;;;0.68;0.68;;;;;;;29.02;55.73;99604.69;5072817;28;20206;-73
2023/06/11 09:50:39;;;;;;;3.95;1.15;;;;;;;28.92;52.93;99582.25;5072748;28;20286;-73
2023/06/11 09:53:08;;;;;;;0.70;0.70;;;;;;;29.51;56.11;99604.84;5072903;28;20203;-73
2023/06/11 09:55:35;;;;;;;0.80;0.80;;;;;;;29.46;54.45;99592.78;5072893;28;20210;-73
2023/06/11 09:58:03;;;;;;;0.70;0.70;;;;;;;29.57;53.77;99594.69;5072395;28;20625;-73
2023/06/11 10:00:30;;;;;;;0.60;0.60;;;;;;;29.47;54.46;99579.28;5072746;28;20233;-73
2023/06/11 10:02:58;;;;;;;0.63;0.63;;;;;;;29.74;57.23;99584.50;5072978;28;20210;-73
2023/06/11 10:05:26;;;;;;;0.63;0.63;;;;;;;29.82;55.08;99584.78;5072651;28;20230;-73
2023/06/11 10:08:00;;;;;;;0.60;0.60;;;;;;;29.69;56.67;99580.44;5037397;28;20206;-74
2023/06/11 10:10:29;;;;;;;0.80;0.80;;;;;;;29.61;57.91;99580.97;5040417;28;20264;-77
2023/06/11 10:12:56;;;;;;;0.90;0.90;;;;;;;29.48;56.28;99577.47;5072827;28;20279;-77
2023/06/11 10:15:24;;;;;;;0.90;0.90;;;;;;;28.81;55.96;99544.78;5058378;28;20604;-76
2023/06/11 10:17:52;;;;;;;0.88;0.88;;;;;;;29.05;57.04;99569.78;5054140;28;20198;-77
2023/06/11 10:20:21;;;;;;;0.68;0.68;;;;;;;28.93;58.21;99559.09;5072661;28;20210;-76
2023/06/11 10:22:49;;;;;;;0.80;0.80;;;;;;;29.08;59.63;99566.03;5072285;28;20207;-75
2023/06/11 10:25:17;;;;;;;0.68;0.68;;;;;;;28.90;57.84;99544.13;5036916;28;20295;-75
2023/06/11 10:27:44;;;;;;;0.60;0.60;;;;;;;29.02;56.57;99563.78;5072069;28;20195;-77
2023/06/11 10:30:22;;;;;;;0.80;0.80;;;;;;;29.14;55.58;99564.75;5072220;28;20728;-74
2023/06/11 10:32:50;;;;;;;0.60;0.60;;;;;;;29.29;54.72;99571.72;5059605;28;20690;-75
2023/06/11 10:35:23;;;;;;;0.75;0.75;;;;;;;29.43;53.76;99561.78;5072126;28;20207;-76
2023/06/11 10:38:02;;;;;;;0.68;0.68;;;;;;;29.76;54.27;99563.84;5058778;28;20742;-75
2023/06/11 10:40:35;;;;;;;0.77;0.77;;;;;;;29.54;53.02;99555.66;5059279;28;20199;-76
2023/06/11 10:43:04;;;;;;;0.80;0.80;;;;;;;29.39;53.97;99554.97;5065885;28;20761;-76
2023/06/11 10:45:36;;;;;;;1.05;1.05;;;;;;;29.17;53.70;99554.72;5061799;28;20323;-75
2023/06/11 10:48:03;;;;;;;2.35;1.13;;;;;;;29.36;51.80;99555.16;5071654;28;20199;-76
2023/06/11 10:50:31;;;;;;;0.60;0.60;;;;;;;29.46;50.16;99553.56;5071865;28;20199;-76
2023/06/11 10:53:02;;;;;;;0.77;0.77;;;;;;;29.82;50.36;99544.69;5070951;28;20203;-75
2023/06/11 10:55:30;;;;;;;0.60;0.60;;;;;;;29.95;49.95;99558.94;5071738;28;20199;-75
2023/06/11 10:57:58;;;;;;;0.77;0.77;;;;;;;29.74;50.22;99531.06;5071349;28;20234;-75
2023/06/11 11:00:28;;;;;;;0.85;0.85;;;;;;;30.00;50.13;99555.94;5071809;28;20271;-75
2023/06/11 11:02:56;;;;;;;0.60;0.60;;;;;;;29.84;48.99;99557.97;5071513;28;20202;-74
2023/06/11 11:05:23;;;;;;;0.75;0.75;;;;;;;30.07;50.14;99550.97;5036045;28;20309;-74
2023/06/11 11:07:50;;;;;;;0.60;0.60;;;;;;;29.98;49.04;99542.66;5071552;28;20693;-74
2023/06/11 11:10:19;;;;;;;0.60;0.60;;;;;;;30.15;48.51;99544.06;5071496;28;20206;-75
2023/06/11 11:12:47;;;;;;;0.50;0.50;;;;;;;30.22;49.61;99539.97;5071766;28;20203;-75
2023/06/11 11:15:15;;;;;;;0.60;0.60;;;;;;;30.41;47.21;99536.78;5071352;28;20206;-75
2023/06/11 11:17:43;;;;;;;0.60;0.60;;;;;;;30.34;45.30;99527.53;5071509;28;20203;-75
2023/06/11 11:20:11;;;;;;;0.60;0.60;;;;;;;30.18;45.48;99503.72;5071195;28;20209;-74
2023/06/11 11:22:38;;;;;;;0.60;0.60;;;;;;;30.42;43.76;99530.50;5071466;28;20677;-75
2023/06/11 11:25:07;;;;;;;0.60;0.60;;;;;;;30.35;44.52;99519.38;5052792;28;20222;-75
2023/06/11 11:27:37;;;;;;;0.70;0.70;;;;;;;30.81;44.41;99513.22;5057515;28;20301;-74
2023/06/11 11:30:05;;;;;;;0.50;0.50;;;;;;;30.89;43.97;99492.91;5070848;28;20716;-76
2023/06/11 11:32:33;;;;;;;0.60;0.60;;;;;;;30.76;47.01;99518.06;5070792;28;20206;-75
2023/06/11 11:35:02;;;;;;;0.60;0.60;;;;;;;30.91;48.15;99514.22;5059845;28;20207;-74